createdAt,value
2024-03-11T00:00:26.075Z,62.57
2024-03-11T00:02:52.612Z,63.42
2024-03-11T00:05:19.240Z,62.78
2024-03-11T00:07:45.790Z,64.54
2024-03-11T00:10:12.357Z,63.90
2024-03-11T00:12:39.095Z,64.26
2024-03-11T00:15:05.655Z,63.92
2024-03-11T00:17:32.277Z,64.17
2024-03-11T00:19:58.950Z,63.53
2024-03-11T00:22:25.489Z,63.51
2024-03-11T00:24:52.045Z,63.57
2024-03-11T00:27:18.627Z,63.64
2024-03-11T00:29:45.235Z,63.00
2024-03-11T00:32:11.861Z,62.89
2024-03-11T00:34:38.430Z,63.84
2024-03-11T00:37:05.011Z,64.19
2024-03-11T00:39:31.858Z,63.98
2024-03-11T00:41:58.588Z,64.01
2024-03-11T00:44:25.244Z,64.61
2024-03-11T00:46:51.827Z,64.64
2024-03-11T00:49:18.447Z,63.71
2024-03-11T00:51:45.056Z,64.54
2024-03-11T00:54:11.601Z,64.56
2024-03-11T00:56:38.243Z,65.05
2024-03-11T00:59:04.847Z,64.32
2024-03-11T01:01:31.466Z,64.10
2024-03-11T01:03:58.020Z,63.99
2024-03-11T01:06:24.625Z,63.93
2024-03-11T01:08:51.642Z,63.94
2024-03-11T01:11:18.390Z,62.80
2024-03-11T01:13:44.938Z,62.05
2024-03-11T01:16:11.538Z,62.40
2024-03-11T01:18:38.337Z,61.88
2024-03-11T01:21:04.912Z,61.55
2024-03-11T01:23:31.510Z,61.72
2024-03-11T01:25:58.108Z,62.29
2024-03-11T01:28:24.688Z,61.32
2024-03-11T01:30:51.265Z,61.13
2024-03-11T01:33:17.886Z,60.69
2024-03-11T01:35:44.520Z,61.36
2024-03-11T01:38:11.192Z,61.83
2024-03-11T01:40:37.766Z,61.72
2024-03-11T01:43:04.316Z,62.15
2024-03-11T01:45:30.852Z,62.94
2024-03-11T01:47:57.454Z,61.81
2024-03-11T01:50:24.071Z,62.41
2024-03-11T01:52:50.656Z,62.42
2024-03-11T01:55:17.429Z,62.50
2024-03-11T01:57:44.162Z,62.49
2024-03-11T02:00:10.718Z,62.18
2024-03-11T02:02:37.263Z,62.87
2024-03-11T02:05:03.869Z,63.31
2024-03-11T02:07:30.442Z,64.52
2024-03-11T02:09:57.048Z,63.85
2024-03-11T02:12:23.641Z,65.07
2024-03-11T02:14:50.357Z,65.07
2024-03-11T02:17:17.344Z,65.76
2024-03-11T02:19:43.967Z,66.00
2024-03-11T02:22:10.600Z,65.03
2024-03-11T02:24:37.187Z,65.99
2024-03-11T02:27:03.733Z,64.59
2024-03-11T02:29:30.291Z,63.89
2024-03-11T02:31:56.888Z,63.03
2024-03-11T02:34:23.499Z,62.41
2024-03-11T02:36:50.115Z,62.47
2024-03-11T02:39:16.759Z,63.08
2024-03-11T02:41:43.319Z,63.76
2024-03-11T02:44:09.994Z,64.61
2024-03-11T02:46:36.569Z,63.45
2024-03-11T02:49:03.114Z,62.83
2024-03-11T02:51:29.826Z,62.75
2024-03-11T02:53:56.375Z,62.24
2024-03-11T02:56:22.996Z,62.44
2024-03-11T02:58:49.557Z,62.17
2024-03-11T03:01:16.112Z,62.22
2024-03-11T03:03:42.653Z,62.51
2024-03-11T03:06:09.178Z,62.06
2024-03-11T03:08:35.767Z,61.90
2024-03-11T03:11:02.449Z,62.26
2024-03-11T03:13:29.104Z,62.51
2024-03-11T03:15:55.651Z,62.56
2024-03-11T03:18:22.228Z,62.92
2024-03-11T03:20:49.088Z,62.25
2024-03-11T03:23:15.722Z,62.53
2024-03-11T03:25:42.282Z,62.41
2024-03-11T03:28:08.836Z,62.29
2024-03-11T03:30:35.423Z,62.45
2024-03-11T03:33:02.116Z,62.18
2024-03-11T03:35:28.800Z,62.29
2024-03-11T03:37:55.432Z,62.96
2024-03-11T03:40:21.964Z,64.18
2024-03-11T03:42:48.618Z,65.40
2024-03-11T03:45:15.226Z,65.19
2024-03-11T03:47:41.850Z,64.26
2024-03-11T03:50:08.476Z,63.33
2024-03-11T03:52:35.051Z,63.49
2024-03-11T03:55:01.595Z,64.21
2024-03-11T03:57:28.177Z,64.41
2024-03-11T03:59:54.833Z,64.64
2024-03-11T04:02:21.449Z,65.50
2024-03-11T04:04:48.069Z,64.66
2024-03-11T04:07:14.460Z,65.56
2024-03-11T04:09:40.879Z,64.75
2024-03-11T04:12:07.469Z,64.60
2024-03-11T04:14:34.096Z,65.14
2024-03-11T04:17:00.543Z,64.38
2024-03-11T04:19:26.931Z,64.95
2024-03-11T04:21:53.318Z,63.67
2024-03-11T04:24:19.842Z,62.90
2024-03-11T04:26:46.858Z,63.44
2024-03-11T04:29:13.373Z,62.87
2024-03-11T04:31:39.794Z,62.27
2024-03-11T04:34:06.183Z,62.46
2024-03-11T04:36:32.584Z,62.19
2024-03-11T04:38:59.226Z,62.25
2024-03-11T04:41:25.764Z,62.07
2024-03-11T04:43:52.177Z,62.24
2024-03-11T04:46:18.625Z,61.71
2024-03-11T04:48:45.033Z,62.00
2024-03-11T04:51:11.482Z,62.10
2024-03-11T04:53:37.934Z,62.15
2024-03-11T04:56:04.353Z,61.69
2024-03-11T04:58:30.761Z,61.46
2024-03-11T05:00:57.220Z,61.90
2024-03-11T05:03:23.678Z,61.80
2024-03-11T05:05:50.374Z,61.53
2024-03-11T05:08:17.029Z,61.63
2024-03-11T05:10:43.635Z,61.57
2024-03-11T05:13:10.199Z,62.22
2024-03-11T05:15:36.760Z,61.79
2024-03-11T05:18:03.617Z,61.31
2024-03-11T05:20:30.426Z,61.55
2024-03-11T05:22:57.051Z,61.62
2024-03-11T05:25:23.604Z,62.22
2024-03-11T05:27:50.132Z,61.47
2024-03-11T05:30:17.254Z,61.55
2024-03-11T05:32:44.006Z,61.47
2024-03-11T05:35:10.656Z,61.63
2024-03-11T05:37:37.301Z,61.91
2024-03-11T05:40:03.860Z,61.73
2024-03-11T05:42:30.416Z,63.23
2024-03-11T05:44:57.186Z,63.18
2024-03-11T05:47:23.912Z,63.03
2024-03-11T05:49:50.483Z,62.09
2024-03-11T05:52:16.999Z,62.67
2024-03-11T05:54:43.538Z,62.47
2024-03-11T05:57:10.074Z,62.79
2024-03-11T05:59:36.631Z,62.28
2024-03-11T06:02:03.183Z,62.59
2024-03-11T06:04:29.699Z,62.02
2024-03-11T06:06:56.295Z,62.20
2024-03-11T06:09:22.834Z,62.36
2024-03-11T06:11:49.492Z,62.26
2024-03-11T06:14:16.123Z,62.46
2024-03-11T06:16:42.682Z,62.08
2024-03-11T06:19:09.229Z,61.81
2024-03-11T06:21:35.773Z,61.70
2024-03-11T06:24:02.314Z,61.75
2024-03-11T06:26:28.920Z,61.11
2024-03-11T06:28:55.464Z,61.12
2024-03-11T06:31:22.050Z,60.91
2024-03-11T06:33:48.690Z,60.21
2024-03-11T06:36:16.332Z,60.68
2024-03-11T06:38:42.992Z,60.35
2024-03-11T06:41:09.637Z,60.10
2024-03-11T06:43:36.287Z,60.72
2024-03-11T06:46:03.242Z,59.53
2024-03-11T06:48:29.867Z,58.79
2024-03-11T06:50:56.500Z,58.27
2024-03-11T06:53:23.043Z,57.75
2024-03-11T06:55:49.679Z,57.38
2024-03-11T06:58:16.237Z,57.33
2024-03-11T07:00:42.794Z,56.65
2024-03-11T07:03:09.399Z,56.91
2024-03-11T07:05:37.106Z,56.62
2024-03-11T07:08:03.922Z,55.88
2024-03-11T07:10:30.478Z,56.35
2024-03-11T07:12:57.004Z,55.51
2024-03-11T07:15:23.563Z,54.83
2024-03-11T07:17:50.112Z,55.30
2024-03-11T07:20:16.631Z,54.14
2024-03-11T07:22:43.176Z,54.23
2024-03-11T07:25:09.749Z,55.30
2024-03-11T07:27:36.370Z,56.34
2024-03-11T07:30:02.914Z,58.94
2024-03-11T07:32:29.446Z,60.21
2024-03-11T07:34:55.988Z,60.63
2024-03-11T07:37:22.541Z,60.07
2024-03-11T07:39:49.121Z,59.66
2024-03-11T07:42:15.653Z,60.57
2024-03-11T07:44:42.233Z,60.25
2024-03-11T07:47:08.799Z,59.92
2024-03-11T07:49:35.333Z,59.63
2024-03-11T07:52:02.005Z,59.40
2024-03-11T07:54:28.614Z,58.36
2024-03-11T07:56:55.194Z,58.04
2024-03-11T07:59:21.750Z,57.17
2024-03-11T08:01:48.314Z,57.48
2024-03-11T08:04:14.876Z,55.27
2024-03-11T08:06:41.493Z,54.18
2024-03-11T08:09:08.056Z,53.58
2024-03-11T08:11:34.698Z,52.73
2024-03-11T08:14:01.285Z,52.98
2024-03-11T08:16:27.894Z,52.49
2024-03-11T08:18:54.472Z,52.41
2024-03-11T08:21:21.024Z,51.57
2024-03-11T08:23:47.561Z,51.27
2024-03-11T08:26:14.096Z,51.15
2024-03-11T08:28:40.626Z,49.57
2024-03-11T08:31:07.215Z,46.52
2024-03-11T08:33:33.744Z,45.80
2024-03-11T08:36:01.417Z,44.50
2024-03-11T08:38:28.022Z,44.19
2024-03-11T08:40:54.646Z,42.14
2024-03-11T08:43:21.185Z,42.35
2024-03-11T08:45:47.933Z,40.36
2024-03-11T08:48:14.501Z,39.05
2024-03-11T08:50:41.052Z,38.36
2024-03-11T08:53:07.599Z,38.97
2024-03-11T08:55:34.158Z,37.62
2024-03-11T08:58:00.710Z,35.95
2024-03-11T09:00:27.263Z,35.57
2024-03-11T09:02:53.809Z,34.21
2024-03-11T09:05:20.912Z,35.45
2024-03-11T09:07:47.912Z,37.96
2024-03-11T09:10:14.534Z,36.73
2024-03-11T09:12:41.141Z,36.25
2024-03-11T09:15:07.715Z,35.87
2024-03-11T09:17:34.282Z,38.57
2024-03-11T09:20:00.841Z,37.99
2024-03-11T09:22:27.378Z,39.81
2024-03-11T09:24:53.985Z,40.37
2024-03-11T09:27:20.586Z,41.73
2024-03-11T09:29:47.140Z,41.02
2024-03-11T09:32:13.680Z,40.31
2024-03-11T09:34:40.234Z,41.32
2024-03-11T09:37:06.802Z,40.61
2024-03-11T09:39:33.363Z,42.38
2024-03-11T09:41:59.943Z,40.88
2024-03-11T09:44:26.478Z,40.20
2024-03-11T09:46:53.051Z,40.18
2024-03-11T09:49:19.648Z,38.99
2024-03-11T09:51:46.226Z,38.22
2024-03-11T09:54:12.773Z,37.96
2024-03-11T09:56:39.340Z,38.37
2024-03-11T09:59:05.882Z,37.88
2024-03-11T10:01:32.504Z,38.44
2024-03-11T10:03:59.139Z,39.68
2024-03-11T10:06:25.765Z,42.46
2024-03-11T10:08:52.296Z,41.20
2024-03-11T10:11:18.880Z,42.27
2024-03-11T10:13:45.457Z,41.87
2024-03-11T10:16:12.007Z,40.91
2024-03-11T10:18:38.632Z,39.92
2024-03-11T10:21:05.198Z,39.58
2024-03-11T10:23:31.795Z,40.82
2024-03-11T10:25:58.395Z,40.24
2024-03-11T10:28:24.948Z,42.04
2024-03-11T10:30:51.641Z,41.94
2024-03-11T10:33:18.498Z,41.34
2024-03-11T10:35:45.090Z,43.11
2024-03-11T10:38:11.704Z,44.17
2024-03-11T10:40:38.374Z,44.89
2024-03-11T10:43:05.126Z,44.80
2024-03-11T10:45:31.752Z,44.47
2024-03-11T10:47:58.365Z,42.80
2024-03-11T10:50:24.938Z,43.85
2024-03-11T10:52:51.590Z,43.22
2024-03-11T10:55:18.221Z,43.52
2024-03-11T10:57:45.649Z,43.67
2024-03-11T11:00:12.788Z,43.13
2024-03-11T11:02:39.470Z,42.78
2024-03-11T11:05:06.045Z,42.97
2024-03-11T11:07:32.660Z,41.40
2024-03-11T11:09:59.222Z,41.47
2024-03-11T11:12:25.812Z,40.84
2024-03-11T11:14:52.453Z,40.34
2024-03-11T11:17:19.015Z,39.98
2024-03-11T11:19:45.560Z,40.06
2024-03-11T11:22:12.094Z,41.38
2024-03-11T11:24:38.662Z,40.55
2024-03-11T11:27:05.233Z,41.79
2024-03-11T11:29:31.826Z,44.44
2024-03-11T11:31:58.380Z,43.86
2024-03-11T11:34:24.918Z,44.16
2024-03-11T11:36:51.509Z,45.17
2024-03-11T11:39:18.218Z,44.28
2024-03-11T11:41:44.811Z,43.68
2024-03-11T11:44:11.369Z,43.04
2024-03-11T11:46:37.918Z,41.57
2024-03-11T11:49:04.513Z,41.27
2024-03-11T11:51:31.141Z,39.09
2024-03-11T11:54:07.487Z,39.03
2024-03-11T11:56:37.120Z,39.14
2024-03-11T11:59:03.702Z,38.30
2024-03-11T12:01:30.579Z,38.23
2024-03-11T12:03:57.281Z,38.57
2024-03-11T12:06:24.826Z,38.24
2024-03-11T12:08:51.487Z,40.34
2024-03-11T12:11:18.060Z,39.67
2024-03-11T12:13:44.639Z,38.29
2024-03-11T12:16:11.198Z,40.76
2024-03-11T12:18:37.758Z,41.86
2024-03-11T12:21:04.323Z,40.56
2024-03-11T12:23:30.874Z,40.67
2024-03-11T12:25:57.394Z,38.91
2024-03-11T12:28:23.941Z,39.28
2024-03-11T12:30:50.552Z,38.69
2024-03-11T12:33:17.189Z,38.64
2024-03-11T12:35:43.820Z,38.03
2024-03-11T12:38:10.362Z,38.47
2024-03-11T12:40:36.888Z,37.95
2024-03-11T12:43:03.555Z,38.20
2024-03-11T12:45:30.108Z,37.35
2024-03-11T12:47:56.663Z,38.04
2024-03-11T12:50:23.233Z,37.82
2024-03-11T12:52:49.777Z,36.49
2024-03-11T12:55:16.329Z,36.55
2024-03-11T12:57:42.927Z,36.02
2024-03-11T13:00:09.555Z,36.64
2024-03-11T13:02:36.239Z,36.49
2024-03-11T13:05:02.808Z,35.82
2024-03-11T13:07:29.333Z,35.79
2024-03-11T13:09:55.929Z,36.06
2024-03-11T13:12:22.572Z,36.31
2024-03-11T13:14:49.318Z,37.26
2024-03-11T13:17:15.911Z,36.58
2024-03-11T13:19:42.445Z,36.15
2024-03-11T13:22:08.992Z,35.40
2024-03-11T13:24:35.563Z,34.61
2024-03-11T13:27:02.175Z,33.37
2024-03-11T13:29:28.706Z,33.55
2024-03-11T13:31:55.423Z,34.43
2024-03-11T13:34:22.024Z,33.69
2024-03-11T13:36:49.027Z,34.32
2024-03-11T13:39:15.605Z,34.19
2024-03-11T13:41:42.155Z,34.50
2024-03-11T13:44:08.686Z,34.45
2024-03-11T13:46:35.204Z,32.60
2024-03-11T13:49:01.814Z,32.35
2024-03-11T13:51:28.432Z,32.18
2024-03-11T13:53:55.042Z,31.53
2024-03-11T13:56:21.590Z,32.36
2024-03-11T13:58:48.156Z,34.13
2024-03-11T14:01:14.798Z,31.61
2024-03-11T14:03:41.428Z,31.30
2024-03-11T14:06:08.299Z,29.50
2024-03-11T14:08:34.918Z,30.55
2024-03-11T14:11:01.544Z,30.37
2024-03-11T14:13:28.109Z,34.54
2024-03-11T14:15:54.735Z,36.53
2024-03-11T14:18:21.344Z,37.05
2024-03-11T14:20:47.995Z,37.22
2024-03-11T14:23:14.581Z,37.96
2024-03-11T14:25:41.124Z,36.78
2024-03-11T14:28:08.066Z,35.07
2024-03-11T14:30:37.865Z,34.20
2024-03-11T14:33:06.388Z,32.72
2024-03-11T14:35:33.041Z,32.75
2024-03-11T14:38:00.834Z,30.93
2024-03-11T14:40:27.702Z,31.57
2024-03-11T14:42:54.303Z,33.75
2024-03-11T14:45:21.010Z,34.58
2024-03-11T14:47:47.580Z,33.41
2024-03-11T14:50:14.290Z,31.45
2024-03-11T14:52:40.833Z,32.03
2024-03-11T14:55:07.441Z,33.01
2024-03-11T14:57:34.040Z,32.17
2024-03-11T15:00:00.634Z,32.50
2024-03-11T15:02:27.182Z,34.56
2024-03-11T15:04:53.719Z,35.69
2024-03-11T15:07:20.277Z,37.57
2024-03-11T15:09:46.900Z,38.26
2024-03-11T15:12:13.524Z,39.48
2024-03-11T15:14:40.140Z,39.47
2024-03-11T15:17:06.696Z,43.73
2024-03-11T15:19:33.241Z,45.33
2024-03-11T15:21:59.932Z,44.08
2024-03-11T15:24:26.567Z,43.64
2024-03-11T15:26:53.234Z,42.31
2024-03-11T15:29:19.866Z,42.52
2024-03-11T15:31:46.495Z,40.48
2024-03-11T15:34:13.081Z,42.34
2024-03-11T15:36:39.725Z,41.64
2024-03-11T15:39:06.455Z,44.77
2024-03-11T15:41:33.002Z,45.25
2024-03-11T15:43:59.606Z,44.66
2024-03-11T15:46:26.123Z,44.81
2024-03-11T15:48:52.685Z,45.26
2024-03-11T15:51:19.284Z,46.01
2024-03-11T15:53:45.996Z,45.38
2024-03-11T15:56:12.548Z,44.49
2024-03-11T15:58:39.101Z,44.37
2024-03-11T16:01:05.766Z,44.01
2024-03-11T16:03:32.486Z,43.59
2024-03-11T16:05:59.106Z,43.94
2024-03-11T16:08:25.674Z,43.87
2024-03-11T16:10:52.327Z,44.00
2024-03-11T16:13:18.987Z,44.02
2024-03-11T16:15:45.575Z,44.15
2024-03-11T16:18:12.179Z,46.07
2024-03-11T16:20:38.746Z,45.99
2024-03-11T16:23:05.331Z,46.28
2024-03-11T16:25:31.870Z,46.69
2024-03-11T16:27:58.431Z,46.56
2024-03-11T16:30:24.998Z,47.15
2024-03-11T16:32:51.574Z,47.60
2024-03-11T16:35:18.107Z,46.81
2024-03-11T16:37:44.674Z,46.96
2024-03-11T16:40:11.383Z,47.25
2024-03-11T16:42:37.988Z,48.03
2024-03-11T16:45:04.529Z,47.57
2024-03-11T16:47:31.089Z,47.01
2024-03-11T16:49:57.634Z,47.68
2024-03-11T16:52:24.170Z,46.91
2024-03-11T16:54:50.825Z,48.18
2024-03-11T16:57:17.584Z,47.95
2024-03-11T16:59:44.236Z,48.42
2024-03-11T17:02:10.780Z,49.56
2024-03-11T17:04:37.305Z,50.79
2024-03-11T17:07:03.953Z,51.64
2024-03-11T17:09:30.580Z,53.42
2024-03-11T17:11:57.204Z,54.59
2024-03-11T17:14:23.784Z,53.17
2024-03-11T17:16:50.360Z,53.29
2024-03-11T17:19:16.888Z,54.16
2024-03-11T17:21:43.482Z,54.57
2024-03-11T17:24:10.024Z,56.13
2024-03-11T17:26:36.645Z,56.13
2024-03-11T17:29:03.294Z,57.51
2024-03-11T17:31:29.826Z,57.67
2024-03-11T17:33:59.205Z,57.38
2024-03-11T17:36:27.715Z,58.03
2024-03-11T17:38:54.284Z,57.50
2024-03-11T17:41:20.840Z,58.84
2024-03-11T17:43:47.377Z,59.65
2024-03-11T17:46:14.025Z,59.91
2024-03-11T17:48:40.650Z,60.67
2024-03-11T17:51:07.513Z,59.93
2024-03-11T17:53:34.179Z,59.63
2024-03-11T17:56:00.699Z,59.45
2024-03-11T17:58:27.231Z,58.08
2024-03-11T18:00:54.329Z,57.55
2024-03-11T18:03:21.411Z,60.07
2024-03-11T18:05:48.131Z,60.42
2024-03-11T18:08:14.687Z,57.87
2024-03-11T18:10:41.539Z,56.46
2024-03-11T18:13:08.316Z,55.62
2024-03-11T18:15:34.911Z,54.74
2024-03-11T18:18:01.557Z,54.03
2024-03-11T18:20:28.319Z,54.40
2024-03-11T18:22:54.943Z,54.50
2024-03-11T18:25:21.570Z,54.19
2024-03-11T18:27:48.173Z,54.97
2024-03-11T18:30:14.723Z,55.79
2024-03-11T18:32:41.342Z,55.97
2024-03-11T18:35:08.024Z,54.84
2024-03-11T18:37:34.598Z,54.14
2024-03-11T18:40:01.242Z,55.94
2024-03-11T18:42:27.953Z,55.63
2024-03-11T18:44:54.542Z,55.79
2024-03-11T18:47:21.120Z,54.50
2024-03-11T18:49:47.781Z,53.90
2024-03-11T18:52:14.342Z,53.10
2024-03-11T18:54:40.905Z,52.73
2024-03-11T18:57:07.480Z,52.26
2024-03-11T18:59:34.027Z,52.69
2024-03-11T19:02:00.708Z,51.97
2024-03-11T19:04:27.290Z,52.58
2024-03-11T19:06:53.848Z,52.75
2024-03-11T19:09:20.425Z,52.35
2024-03-11T19:11:46.997Z,52.71
2024-03-11T19:14:13.547Z,52.61
2024-03-11T19:16:40.123Z,52.22
2024-03-11T19:19:06.739Z,53.22
2024-03-11T19:21:33.352Z,53.06
2024-03-11T19:23:59.924Z,53.47
2024-03-11T19:26:26.479Z,53.80
2024-03-11T19:28:53.012Z,53.38
2024-03-11T19:31:19.576Z,53.33
2024-03-11T19:33:46.150Z,55.18
2024-03-11T19:36:16.377Z,54.21
2024-03-11T19:38:44.444Z,54.16
2024-03-11T19:41:11.212Z,53.82
2024-03-11T19:43:37.963Z,53.48
2024-03-11T19:46:04.565Z,55.96
2024-03-11T19:48:31.210Z,54.65
2024-03-11T19:50:57.800Z,54.33
2024-03-11T19:53:24.339Z,54.05
2024-03-11T19:55:50.898Z,53.21
2024-03-11T19:58:17.422Z,55.02
2024-03-11T20:00:44.057Z,54.36
2024-03-11T20:03:10.653Z,55.21
2024-03-11T20:05:37.184Z,54.69
2024-03-11T20:08:03.728Z,56.25
2024-03-11T20:10:30.357Z,55.45
2024-03-11T20:12:57.027Z,55.87
2024-03-11T20:15:23.675Z,56.11
2024-03-11T20:17:50.308Z,56.17
2024-03-11T20:20:16.917Z,55.55
2024-03-11T20:22:43.502Z,56.53
2024-03-11T20:25:10.318Z,55.96
2024-03-11T20:27:36.909Z,55.02
2024-03-11T20:30:03.443Z,54.24
2024-03-11T20:32:29.977Z,55.16
2024-03-11T20:34:56.504Z,54.97
2024-03-11T20:37:23.085Z,54.52
2024-03-11T20:39:49.692Z,55.96
2024-03-11T20:42:16.249Z,56.75
2024-03-11T20:44:42.831Z,55.53
2024-03-11T20:47:09.384Z,55.39
2024-03-11T20:49:35.938Z,55.59
2024-03-11T20:52:02.565Z,57.53
2024-03-11T20:54:29.142Z,55.90
2024-03-11T20:56:55.665Z,55.04
2024-03-11T20:59:22.186Z,54.42
2024-03-11T21:01:48.826Z,54.55
2024-03-11T21:04:15.391Z,53.90
2024-03-11T21:06:41.917Z,53.19
2024-03-11T21:09:08.474Z,53.17
2024-03-11T21:11:35.067Z,52.87
2024-03-11T21:14:01.717Z,53.74
2024-03-11T21:16:28.301Z,52.98
2024-03-11T21:18:54.850Z,53.11
2024-03-11T21:21:21.914Z,53.17
2024-03-11T21:23:48.781Z,52.61
2024-03-11T21:26:15.344Z,53.26
2024-03-11T21:28:41.890Z,54.22
2024-03-11T21:31:08.523Z,55.09
2024-03-11T21:33:35.231Z,55.78
2024-03-11T21:36:01.799Z,57.68
2024-03-11T21:38:30.832Z,56.55
2024-03-11T21:40:59.941Z,57.30
2024-03-11T21:43:26.510Z,55.62
2024-03-11T21:45:53.186Z,56.48
2024-03-11T21:48:20.231Z,56.73
2024-03-11T21:50:47.074Z,55.72
2024-03-11T21:53:13.751Z,54.68
2024-03-11T21:55:40.283Z,55.50
2024-03-11T21:58:06.913Z,55.41
2024-03-11T22:00:33.513Z,54.98
2024-03-11T22:03:00.035Z,54.88
2024-03-11T22:05:26.615Z,55.29
2024-03-11T22:07:53.219Z,55.17
2024-03-11T22:10:19.940Z,54.85
2024-03-11T22:12:46.680Z,55.19
2024-03-11T22:15:13.474Z,55.40
2024-03-11T22:17:40.088Z,55.38
2024-03-11T22:20:06.705Z,55.64
2024-03-11T22:22:33.236Z,55.69
2024-03-11T22:24:59.869Z,55.30
2024-03-11T22:27:26.537Z,55.61
2024-03-11T22:29:53.106Z,55.57
2024-03-11T22:32:19.653Z,55.31
2024-03-11T22:34:46.198Z,55.22
2024-03-11T22:37:12.807Z,55.25
2024-03-11T22:39:39.474Z,55.38
2024-03-11T22:42:06.069Z,55.33
2024-03-11T22:44:32.652Z,56.88
2024-03-11T22:46:59.289Z,56.58
2024-03-11T22:49:25.948Z,56.03
2024-03-11T22:51:52.535Z,56.02
2024-03-11T22:54:19.100Z,55.25
2024-03-11T22:56:45.667Z,55.80
2024-03-11T22:59:12.224Z,55.46
2024-03-11T23:01:38.790Z,54.74
2024-03-11T23:04:06.064Z,54.60
2024-03-11T23:06:32.924Z,54.35
2024-03-11T23:08:59.522Z,54.81
2024-03-11T23:11:26.176Z,54.53
2024-03-11T23:13:52.743Z,54.23
2024-03-11T23:16:19.475Z,54.25
2024-03-11T23:18:46.149Z,54.90
2024-03-11T23:21:12.733Z,55.20
2024-03-11T23:23:39.344Z,54.31
2024-03-11T23:26:08.382Z,53.96
2024-03-11T23:28:35.299Z,54.20
2024-03-11T23:31:02.001Z,53.66
2024-03-11T23:33:28.662Z,53.42
2024-03-11T23:35:55.267Z,53.44
2024-03-11T23:38:21.833Z,52.86
2024-03-11T23:40:48.388Z,52.92
2024-03-11T23:43:14.959Z,53.17
2024-03-11T23:45:41.529Z,53.91
2024-03-11T23:48:08.241Z,53.66
2024-03-11T23:50:34.809Z,54.78
2024-03-11T23:53:01.359Z,55.36
2024-03-11T23:55:27.987Z,55.16
2024-03-11T23:57:54.593Z,56.10
